Time;durP1;ratioP1;P1;durP2;ratioP2;P2;SDS_P1;SDS_P2;PMS_P1;PMS_P2;Temp;Humidity;BMP_temperature;BMP_pressure;BME280_temperature;BME280_humidity;BME280_pressure;Samples;Min_cycle;Max_cycle;Signal;HPM_P1;HPM_P2
2022/12/23 00:01:21;;;;;;;26.20;14.70;;;;;;;1.89;83.63;98246.11;102271;1302;61171;-24
2022/12/23 00:03:48;;;;;;;36.10;18.80;;;;;;;2.24;82.25;98238.24;102215;1296;62764;-24
2022/12/23 00:06:16;;;;;;;21.90;13.30;;;;;;;2.19;81.67;98228.28;102235;1301;75356;-24
2022/12/23 00:08:43;;;;;;;38.10;18.90;;;;;;;2.00;81.77;98227.71;102179;1300;75790;-25
2022/12/23 00:11:17;;;;;;;45.70;23.00;;;;;;;1.72;82.24;98229.14;102163;1299;74211;-25
2022/12/23 00:16:30;;;;;;;38.90;20.50;;;;;;;1.92;82.62;98237.38;102170;1295;62878;-26
2022/12/23 00:18:58;;;;;;;40.90;21.30;;;;;;;2.41;81.59;98244.80;102261;1295;76542;-25
2022/12/23 00:21:25;;;;;;;41.40;22.40;;;;;;;2.41;81.01;98245.64;102245;1298;75808;-26
2022/12/23 00:23:52;;;;;;;47.60;25.20;;;;;;;2.12;80.61;98248.06;102228;1301;75317;-26
2022/12/23 00:26:23;;;;;;;44.90;23.80;;;;;;;1.79;81.31;98243.66;102213;1302;61155;-25
2022/12/23 00:28:51;;;;;;;34.90;17.30;;;;;;;1.55;82.18;98239.04;101919;1308;62588;-22
2022/12/23 00:31:18;;;;;;;33.10;19.20;;;;;;;1.62;83.06;98244.91;102194;1292;76090;-22
2022/12/23 00:33:47;;;;;;;40.70;22.00;;;;;;;2.19;81.30;98242.00;102173;1302;76872;-23
2022/12/23 00:36:21;;;;;;;41.70;21.80;;;;;;;2.16;80.53;98243.05;102123;1289;73323;-23
2022/12/23 00:44:20;;;;;;;22.00;11.60;;;;;;;1.43;82.54;98230.63;102237;1299;76716;-23
2022/12/23 00:46:48;;;;;;;56.20;26.00;;;;;;;1.56;82.84;98228.00;102236;1302;76564;-23
2022/12/23 00:52:03;;;;;;;50.20;25.50;;;;;;;2.12;80.61;98225.79;102092;1301;61861;-23
2022/12/23 00:54:31;;;;;;;34.10;19.90;;;;;;;1.87;80.84;98221.59;102004;1299;61798;-23
2022/12/23 00:56:58;;;;;;;31.60;18.70;;;;;;;1.63;81.36;98216.33;102105;1302;76233;-23
2022/12/23 00:59:26;;;;;;;34.10;18.60;;;;;;;1.34;82.51;98212.86;102039;1301;76765;-23
2022/12/23 01:07:25;;;;;;;24.70;13.70;;;;;;;1.81;81.11;98215.98;102305;1298;62258;-23
2022/12/23 01:09:52;;;;;;;35.50;20.20;;;;;;;1.61;81.40;98211.48;102180;1299;75163;-23
2022/12/23 01:12:19;;;;;;;45.80;23.70;;;;;;;1.37;82.07;98201.52;102152;1301;77119;-23
2022/12/23 01:14:47;;;;;;;45.60;23.50;;;;;;;1.32;82.97;98198.94;102214;1298;74252;-23
2022/12/23 01:17:14;;;;;;;33.30;17.80;;;;;;;1.71;81.81;98191.02;102180;1302;63404;-23
2022/12/23 01:19:41;;;;;;;42.60;24.60;;;;;;;1.63;81.24;98190.48;102235;1297;61802;-23
2022/12/23 01:22:08;;;;;;;31.80;14.20;;;;;;;1.49;81.59;98179.98;102031;1302;76155;-23
2022/12/23 01:24:35;;;;;;;37.70;21.70;;;;;;;1.27;82.32;98179.21;102175;1294;76854;-23
2022/12/23 01:27:02;;;;;;;51.30;27.70;;;;;;;1.16;83.21;98181.40;102162;1299;73979;-23
2022/12/23 01:29:30;;;;;;;37.10;19.30;;;;;;;1.48;82.28;98174.27;102192;1302;61823;-23
2022/12/23 01:31:57;;;;;;;48.00;24.10;;;;;;;1.54;81.46;98174.77;102236;1302;62762;-23
2022/12/23 06:32:13;;;;;;;40.00;17.80;;;;;;;1.99;83.32;98184.09;102176;1294;76184;-25
2022/12/23 06:34:40;;;;;;;44.50;19.50;;;;;;;1.93;83.09;98186.53;102282;1301;76516;-25
2022/12/23 06:37:07;;;;;;;31.40;17.40;;;;;;;1.75;83.53;98186.20;102006;1301;75248;-24
2022/12/23 06:39:34;;;;;;;31.30;15.40;;;;;;;1.55;84.34;98182.73;102183;1299;62142;-24
2022/12/23 06:42:01;;;;;;;32.20;17.50;;;;;;;1.71;84.74;98184.39;102074;1300;61103;-25
2022/12/23 06:44:28;;;;;;;39.40;18.00;;;;;;;2.18;83.19;98186.38;102136;1297;76289;-24
2022/12/23 06:46:55;;;;;;;28.90;14.70;;;;;;;2.29;82.43;98184.16;101930;1294;76804;-25
2022/12/23 06:49:22;;;;;;;35.70;18.70;;;;;;;2.18;82.36;98189.12;102073;1301;74215;-25
2022/12/23 06:51:49;;;;;;;37.20;18.60;;;;;;;1.89;83.16;98190.67;101992;1298;61815;-25
2022/12/23 06:54:16;;;;;;;21.90;12.40;;;;;;;1.77;83.86;98186.11;101981;1291;62773;-25
2022/12/23 06:56:43;;;;;;;39.30;18.90;;;;;;;2.00;84.02;98192.11;102072;1294;76340;-26
2022/12/23 06:59:10;;;;;;;24.80;14.10;;;;;;;2.26;83.08;98187.65;101910;1299;76728;-26
2022/12/23 07:01:39;;;;;;;29.20;15.80;;;;;;;2.19;82.90;98192.44;101243;1301;1505010;-26
2022/12/23 07:04:06;;;;;;;36.30;17.90;;;;;;;1.95;83.53;98192.35;102074;1295;61254;-26
2022/12/23 07:06:33;;;;;;;34.00;16.70;;;;;;;1.80;84.46;98193.46;102041;1300;62564;-26
2022/12/23 07:09:00;;;;;;;24.00;14.10;;;;;;;1.88;84.73;98191.92;102195;1301;76544;-26
2022/12/23 07:11:27;;;;;;;34.20;18.30;;;;;;;2.42;83.46;98196.05;102152;1299;76603;-26
2022/12/23 07:13:54;;;;;;;41.80;19.90;;;;;;;2.66;82.14;98205.43;102091;1301;75456;-27
2022/12/23 07:16:21;;;;;;;40.80;20.10;;;;;;;2.56;81.87;98201.53;102016;1301;62610;-26
2022/12/23 07:18:48;;;;;;;38.20;18.30;;;;;;;2.30;82.37;98197.16;102021;1294;62835;-26
2022/12/23 07:21:15;;;;;;;21.10;11.10;;;;;;;2.12;83.07;98200.61;102005;1300;76384;-26
2022/12/23 07:23:54;;;;;;;31.50;15.40;;;;;;;2.25;83.64;98192.48;102044;1299;76760;-26
2022/12/23 07:26:21;;;;;;;29.50;16.20;;;;;;;2.66;82.05;98199.05;102021;1301;75423;-27
2022/12/23 07:28:48;;;;;;;24.40;11.60;;;;;;;2.58;81.60;98200.77;102258;1298;61565;-26
2022/12/23 07:31:15;;;;;;;38.40;19.10;;;;;;;2.42;82.19;98201.52;102127;1294;61582;-26
2022/12/23 07:33:42;;;;;;;35.70;19.00;;;;;;;2.21;83.04;98208.63;102145;1292;76168;-27
2022/12/23 07:36:09;;;;;;;30.70;15.60;;;;;;;1.98;83.96;98210.88;102009;1294;76794;-26
2022/12/23 07:38:36;;;;;;;33.80;17.80;;;;;;;2.26;83.98;98213.13;102104;1302;75166;-26
2022/12/23 07:48:41;;;;;;;24.70;12.50;;;;;;;2.42;82.68;98214.79;99221;1330;600152;-25
2022/12/23 07:51:08;;;;;;;40.80;18.30;;;;;;;2.34;83.18;98220.55;101257;1304;62376;-25
2022/12/23 07:53:35;;;;;;;37.40;19.10;;;;;;;2.80;82.63;98217.06;101053;1314;61961;-25
2022/12/23 07:56:02;;;;;;;33.80;17.90;;;;;;;3.10;81.51;98217.52;101302;1310;73722;-25
2022/12/23 07:58:29;;;;;;;37.70;19.80;;;;;;;3.02;80.95;98214.48;101338;1312;77124;-25
2022/12/23 08:01:01;;;;;;;32.40;17.70;;;;;;;2.97;81.43;98220.09;101305;1312;74266;-25
2022/12/23 08:03:28;;;;;;;36.10;17.70;;;;;;;2.86;81.50;98214.95;100463;1311;1266646;-25
2022/12/23 08:06:03;;;;;;;32.40;14.50;;;;;;;2.84;81.89;98215.76;101449;1299;62801;-26
2022/12/23 08:08:30;;;;;;;21.20;12.50;;;;;;;3.39;81.16;98217.39;101487;1310;73760;-25
2022/12/23 08:10:59;;;;;;;32.00;16.70;;;;;;;3.63;79.57;98211.94;101695;1302;75702;-25
2022/12/23 08:13:26;;;;;;;38.80;19.20;;;;;;;3.53;79.42;98214.81;101601;1307;74169;-25
2022/12/23 08:15:54;;;;;;;32.80;17.90;;;;;;;3.47;79.88;98218.76;101604;1309;61244;-25
2022/12/23 08:18:22;;;;;;;37.40;18.10;;;;;;;3.40;80.20;98218.05;101712;1307;61839;-28
2022/12/23 08:20:53;;;;;;;37.30;16.90;;;;;;;3.23;80.67;98217.41;101536;1308;75787;-28
2022/12/23 08:23:20;;;;;;;33.80;16.80;;;;;;;3.17;81.30;98219.52;101683;1302;76637;-28
2022/12/23 08:26:01;;;;;;;31.20;15.30;;;;;;;3.76;80.32;98216.89;101747;1307;75317;-27
2022/12/23 08:28:28;;;;;;;37.70;18.40;;;;;;;3.91;78.60;98218.35;101457;1308;62642;-27
2022/12/23 08:31:02;;;;;;;30.50;16.10;;;;;;;3.76;78.80;98217.06;101574;1308;61849;-27
2022/12/23 08:33:29;;;;;;;29.20;12.80;;;;;;;3.59;79.41;98217.02;101500;1300;75662;-27
2022/12/23 08:35:56;;;;;;;35.90;17.70;;;;;;;3.37;79.91;98211.89;101756;1301;77111;-27
2022/12/23 08:38:23;;;;;;;28.50;15.70;;;;;;;3.21;80.85;98206.91;101555;1308;73130;-27
2022/12/23 08:40:50;;;;;;;31.90;15.40;;;;;;;3.81;80.42;98201.77;101495;1307;61551;-27
2022/12/23 08:43:18;;;;;;;30.30;17.60;;;;;;;4.46;79.13;98198.95;101668;1302;62687;-28
2022/12/23 08:45:45;;;;;;;21.40;9.90;;;;;;;4.74;77.75;98193.56;101480;1307;75567;-27
2022/12/23 08:48:12;;;;;;;30.60;14.70;;;;;;;4.74;76.60;98193.61;101449;1308;76765;-26
2022/12/23 08:50:41;;;;;;;25.50;15.00;;;;;;;4.76;76.71;98193.77;101543;1309;75400;-26
2022/12/23 08:53:08;;;;;;;39.30;17.20;;;;;;;4.84;76.75;98188.74;101405;1311;61919;-26
2022/12/23 08:55:37;;;;;;;29.90;16.90;;;;;;;4.98;76.67;98183.27;101629;1292;61062;-25
2022/12/23 08:58:04;;;;;;;29.00;14.50;;;;;;;4.95;76.40;98184.16;102302;1302;75271;-26
2022/12/23 09:00:31;;;;;;;26.80;13.90;;;;;;;4.80;76.66;98179.05;102279;1302;76703;-26
2022/12/23 09:02:58;;;;;;;28.00;13.80;;;;;;;4.55;77.03;98175.98;102247;1299;74114;-26
2022/12/23 09:05:25;;;;;;;35.70;19.80;;;;;;;4.42;77.80;98182.36;102363;1299;62173;-27
2022/12/23 09:07:52;;;;;;;20.00;11.10;;;;;;;4.53;78.02;98189.15;102339;1298;61803;-26
2022/12/23 09:10:20;;;;;;;21.50;12.40;;;;;;;4.44;78.37;98195.63;102305;1299;75547;-27
2022/12/23 09:12:46;;;;;;;25.40;13.50;;;;;;;4.95;77.31;98187.80;102297;1299;76698;-24
2022/12/23 09:15:14;;;;;;;25.30;13.70;;;;;;;5.38;76.01;98191.59;102350;1299;75087;-24
2022/12/23 09:17:41;;;;;;;24.50;13.20;;;;;;;5.31;75.28;98193.08;102311;1298;61126;-24
2022/12/23 09:20:09;;;;;;;23.60;12.40;;;;;;;5.28;75.59;98193.66;102039;1299;61445;-24
2022/12/23 09:22:36;;;;;;;26.00;14.50;;;;;;;5.09;75.96;98193.11;102161;1303;74481;-24
2022/12/23 09:25:04;;;;;;;24.90;14.70;;;;;;;4.90;76.44;98193.82;102301;1299;76513;-24
2022/12/23 09:27:31;;;;;;;32.70;16.10;;;;;;;4.69;77.22;98192.38;102256;1296;75175;-24
2022/12/23 09:29:58;;;;;;;21.40;12.60;;;;;;;4.57;77.56;98189.77;102320;1299;61109;-24
2022/12/23 09:32:25;;;;;;;19.70;11.10;;;;;;;4.92;77.94;98192.98;102277;1299;62260;-24
2022/12/23 09:34:52;;;;;;;25.80;14.50;;;;;;;5.56;76.67;98192.49;102122;1296;75636;-24
2022/12/23 09:37:19;;;;;;;19.90;11.60;;;;;;;5.92;75.54;98194.65;102318;1299;76453;-24
2022/12/23 09:39:46;;;;;;;28.20;12.70;;;;;;;5.97;74.23;98199.44;102323;1301;75179;-24
2022/12/23 09:42:28;;;;;;;21.70;13.20;;;;;;;5.96;74.59;98197.79;102331;1302;62816;-24
2022/12/23 09:45:37;;;;;;;19.40;11.90;;;;;;;5.94;74.83;98194.16;102055;1294;61852;-24
2022/12/23 09:48:12;;;;;;;15.70;9.90;;;;;;;5.75;74.98;98195.86;101876;1304;75574;-24
2022/12/23 09:50:39;;;;;;;19.30;10.70;;;;;;;5.52;74.92;98195.18;101816;1308;74809;-24
2022/12/23 09:53:13;;;;;;;16.70;9.00;;;;;;;5.27;75.24;98191.14;101833;1304;74406;-24
2022/12/23 09:56:15;;;;;;;;;;;;;;;5.58;75.38;98197.64;101622;1306;62929;-24
2022/12/23 09:59:01;;;;;;;14.60;8.10;;;;;;;6.16;73.14;98195.47;101170;1306;61800;-24
2022/12/23 10:01:59;;;;;;;15.90;10.00;;;;;;;6.21;73.05;98197.62;101229;1318;75320;-24
2022/12/23 10:05:08;;;;;;;17.30;10.30;;;;;;;6.06;72.87;98197.70;101291;1312;76848;-24
2022/12/23 10:07:38;;;;;;;17.10;8.10;;;;;;;5.85;74.37;98199.79;100562;1319;75207;-24
2022/12/23 10:10:39;;;;;;;18.30;11.20;;;;;;;5.63;74.25;98199.84;100568;1312;61641;-24
2022/12/23 10:13:13;;;;;;;16.70;9.40;;;;;;;5.42;74.73;98197.84;100328;1322;61596;-24
2022/12/23 10:15:42;;;;;;;16.50;8.40;;;;;;;5.59;75.38;98193.34;100620;1313;74469;-24
2022/12/23 10:18:24;;;;;;;18.80;9.80;;;;;;;6.18;73.90;98189.95;100365;1317;75928;-24
2022/12/23 10:21:00;;;;;;;15.10;9.60;;;;;;;6.44;72.44;98186.23;100645;1317;74963;-24
2022/12/23 10:23:31;;;;;;;16.60;9.30;;;;;;;6.28;72.08;98188.33;100703;1316;62871;-25
2022/12/23 10:25:58;;;;;;;18.20;10.50;;;;;;;6.21;72.48;98187.63;100763;1314;61766;-24
2022/12/23 10:28:25;;;;;;;14.80;7.70;;;;;;;6.28;71.98;98186.39;100832;1316;75816;-24
2022/12/23 10:31:01;;;;;;;18.90;11.30;;;;;;;6.29;71.89;98189.63;101196;1308;76642;-23
2022/12/23 10:34:06;;;;;;;15.50;9.30;;;;;;;6.46;70.99;98184.36;101321;1311;75274;-24
2022/12/23 10:36:43;;;;;;;17.90;10.50;;;;;;;6.47;70.79;98181.19;101650;1304;61221;-24
2022/12/23 10:39:19;;;;;;;18.80;10.40;;;;;;;6.56;70.87;98182.00;101560;1301;61871;-24
2022/12/23 10:41:58;;;;;;;17.80;10.80;;;;;;;6.68;70.48;98185.38;101709;1308;75450;-24
2022/12/23 10:44:37;;;;;;;24.00;12.50;;;;;;;6.80;70.22;98190.34;101864;1305;76626;-25
2022/12/23 10:47:09;;;;;;;13.80;9.80;;;;;;;6.62;70.21;98187.23;102292;1289;75149;-24
2022/12/23 10:49:55;;;;;;;17.50;11.00;;;;;;;6.40;70.96;98188.44;102000;1299;61878;-24
2022/12/23 10:52:25;;;;;;;13.90;9.10;;;;;;;6.15;71.54;98192.73;102344;1292;62817;-25
2022/12/23 10:54:52;;;;;;;16.20;9.30;;;;;;;5.95;72.38;98197.86;102342;1291;75193;-25
2022/12/23 10:57:19;;;;;;;17.00;10.10;;;;;;;5.80;73.32;98189.99;102172;1302;75005;-25
2022/12/23 10:59:46;;;;;;;13.10;8.30;;;;;;;5.74;73.74;98192.03;102284;1299;74978;-25
2022/12/23 11:02:13;;;;;;;17.60;9.80;;;;;;;6.31;73.68;98181.84;102348;1296;61768;-23
2022/12/23 11:05:05;;;;;;;18.90;10.70;;;;;;;6.91;71.41;98175.64;102409;1294;62860;-23
2022/12/23 11:07:32;;;;;;;14.00;9.20;;;;;;;7.11;70.23;98166.98;101893;1301;75432;-23
2022/12/23 11:10:20;;;;;;;18.50;11.40;;;;;;;6.96;69.25;98156.42;101838;1305;76774;-23
2022/12/23 11:12:49;;;;;;;16.20;10.70;;;;;;;7.03;70.60;98156.35;101653;1309;74214;-23
2022/12/23 11:15:28;;;;;;;16.40;10.20;;;;;;;7.14;69.75;98151.00;101672;1304;61633;-24
2022/12/23 11:18:00;;;;;;;13.50;8.30;;;;;;;6.98;69.69;98146.14;101845;1303;61068;-24
2022/12/23 11:20:27;;;;;;;16.80;9.60;;;;;;;6.79;70.00;98141.04;101745;1303;75746;-24
2022/12/23 11:23:00;;;;;;;13.40;7.40;;;;;;;6.71;70.51;98145.85;101840;1306;76858;-25
2022/12/23 11:25:36;;;;;;;16.40;7.60;;;;;;;6.84;70.43;98155.34;101754;1306;75044;-24
2022/12/23 11:28:10;;;;;;;17.80;10.20;;;;;;;6.74;70.43;98168.03;101717;1308;63741;-24
2022/12/23 11:31:04;;;;;;;18.90;9.90;;;;;;;6.72;71.17;98170.95;101838;1296;62640;-24
2022/12/23 11:33:33;;;;;;;14.60;8.20;;;;;;;6.78;71.27;98172.37;101813;1305;74561;-26
2022/12/23 11:36:06;;;;;;;18.60;10.20;;;;;;;6.65;71.13;98168.50;101725;1308;75454;-23
2022/12/23 11:38:34;;;;;;;13.60;9.30;;;;;;;6.64;71.31;98178.08;101813;1309;74174;-23
2022/12/23 11:41:02;;;;;;;15.20;9.40;;;;;;;6.48;71.99;98178.88;101737;1306;62866;-23
2022/12/23 11:43:30;;;;;;;19.00;10.80;;;;;;;6.36;72.58;98178.09;101755;1305;61136;-24
2022/12/23 11:46:31;;;;;;;14.20;8.10;;;;;;;6.36;72.73;98183.91;101810;1305;74294;-24
2022/12/23 11:49:14;;;;;;;13.90;8.70;;;;;;;6.95;71.40;98180.52;102153;1300;75445;-24
2022/12/23 11:51:43;;;;;;;12.70;8.30;;;;;;;7.39;70.18;98181.76;102035;1298;75456;-24
2022/12/23 11:54:15;;;;;;;14.00;8.20;;;;;;;7.33;69.72;98185.55;102203;1297;61836;-24
2022/12/23 11:56:42;;;;;;;14.60;9.20;;;;;;;7.11;69.83;98184.60;102000;1304;62644;-24
2022/12/23 11:59:27;;;;;;;13.90;8.70;;;;;;;6.90;70.37;98187.64;102351;1298;74274;-25
2022/12/23 12:01:59;;;;;;;15.00;9.40;;;;;;;6.66;71.18;98189.69;102193;1294;75662;-24
2022/12/23 12:04:29;;;;;;;11.20;7.40;;;;;;;6.39;71.89;98194.50;102362;1302;75178;-24
2022/12/23 12:06:56;;;;;;;12.20;7.70;;;;;;;6.12;72.62;98199.83;102343;1301;62140;-24
2022/12/23 12:09:23;;;;;;;12.90;7.30;;;;;;;6.10;73.36;98201.23;102309;1298;61789;-25
2022/12/23 12:12:02;;;;;;;12.60;7.00;;;;;;;6.53;72.45;98204.85;102366;1300;74076;-24
2022/12/23 12:14:42;;;;;;;17.20;9.90;;;;;;;6.84;71.35;98205.36;102381;1299;76630;-24
2022/12/23 12:17:32;;;;;;;16.30;8.80;;;;;;;6.85;70.89;98202.15;102159;1302;74226;-24
2022/12/23 12:20:17;;;;;;;17.80;9.20;;;;;;;6.60;71.22;98202.76;102229;1292;62696;-25
2022/12/23 12:22:48;;;;;;;15.40;9.60;;;;;;;6.34;71.93;98201.77;102226;1302;62675;-24
2022/12/23 12:25:20;;;;;;;13.60;8.00;;;;;;;6.16;72.33;98200.98;102310;1299;76075;-24
2022/12/23 12:27:59;;;;;;;12.20;7.80;;;;;;;5.97;73.10;98201.54;102289;1292;76801;-24
2022/12/23 12:30:30;;;;;;;11.20;6.50;;;;;;;5.68;74.49;98200.74;102302;1298;74157;-24
2022/12/23 12:33:07;;;;;;;10.40;5.70;;;;;;;5.71;74.60;98204.64;102071;1301;63586;-24
2022/12/23 12:35:42;;;;;;;10.60;6.30;;;;;;;6.30;73.30;98203.98;102152;1306;63420;-24
2022/12/23 12:38:25;;;;;;;9.70;6.90;;;;;;;6.51;71.33;98197.23;102323;1292;76105;-24
2022/12/23 12:40:59;;;;;;;11.80;6.60;;;;;;;6.36;71.34;98201.11;102289;1295;76520;-25
2022/12/23 12:43:29;;;;;;;12.00;7.00;;;;;;;6.14;71.93;98203.50;102282;1299;75271;-24
2022/12/23 12:46:09;;;;;;;11.80;7.70;;;;;;;5.85;72.96;98203.42;102326;1297;62670;-24
2022/12/23 12:48:37;;;;;;;11.50;7.00;;;;;;;5.62;73.81;98206.83;102203;1299;61123;-26
2022/12/23 12:51:10;;;;;;;12.40;7.60;;;;;;;5.43;74.60;98211.65;102303;1299;76311;-29
2022/12/23 12:53:41;;;;;;;11.70;7.00;;;;;;;5.26;74.91;98210.65;102165;1298;76217;-27
2022/12/23 12:56:17;;;;;;;16.40;6.00;;;;;;;5.16;75.59;98210.33;102071;1301;75239;-26
2022/12/23 12:58:44;;;;;;;11.30;6.40;;;;;;;5.69;75.03;98211.67;101942;1303;61199;-24
2022/12/23 13:01:27;;;;;;;10.40;5.80;;;;;;;6.14;72.95;98210.58;102319;1299;61171;-25
2022/12/23 13:03:57;;;;;;;11.70;6.60;;;;;;;6.13;72.47;98207.72;102246;1301;76776;-25
2022/12/23 13:06:38;;;;;;;11.00;6.60;;;;;;;5.98;72.84;98208.98;102358;1298;75733;-24
2022/12/23 13:09:35;;;;;;;9.70;5.90;;;;;;;5.78;73.44;98210.80;102200;1299;74366;-24
2022/12/23 13:12:21;;;;;;;12.00;7.50;;;;;;;5.55;73.81;98202.19;102150;1299;61166;-24
2022/12/23 13:14:54;;;;;;;10.40;7.60;;;;;;;5.33;74.35;98198.48;102192;1299;61588;-25
2022/12/23 13:17:28;;;;;;;9.40;5.30;;;;;;;5.20;74.85;98198.55;102394;1296;76346;-26
2022/12/23 13:20:36;;;;;;;10.40;5.20;;;;;;;5.71;75.08;98201.21;102186;1299;76626;-25
2022/12/23 13:23:10;;;;;;;9.00;6.00;;;;;;;6.31;73.03;98202.23;102101;1302;75411;-24
2022/12/23 13:26:01;;;;;;;12.10;6.90;;;;;;;6.24;72.47;98207.09;102018;1302;62212;-25
2022/12/23 13:28:51;;;;;;;10.40;6.70;;;;;;;6.00;72.59;98205.24;102042;1302;61702;-26
2022/12/23 13:31:46;;;;;;;9.70;6.90;;;;;;;5.74;73.27;98207.34;102029;1302;76488;-26
2022/12/23 13:35:01;;;;;;;12.00;7.10;;;;;;;5.46;73.70;98203.34;101933;1304;76619;-27
2022/12/23 13:37:37;;;;;;;11.40;7.00;;;;;;;5.17;74.45;98198.56;101641;1309;75059;-26
2022/12/23 13:40:26;;;;;;;7.70;5.30;;;;;;;5.03;75.08;98196.70;101792;1308;63427;-25
2022/12/23 13:42:56;;;;;;;9.90;5.90;;;;;;;5.61;74.88;98199.02;101695;1308;61171;-28
2022/12/23 13:45:26;;;;;;;10.40;6.10;;;;;;;6.04;73.29;98200.31;101444;1306;76548;-30
2022/12/23 13:48:05;;;;;;;11.30;6.70;;;;;;;6.06;72.95;98203.06;101694;1306;74757;-27
2022/12/23 13:50:40;;;;;;;9.60;6.30;;;;;;;5.86;72.84;98202.69;101501;1307;74348;-25
2022/12/23 13:53:21;;;;;;;11.00;6.50;;;;;;;5.60;73.51;98197.86;101548;1303;61635;-25
2022/12/23 13:56:04;;;;;;;11.40;7.00;;;;;;;5.34;73.93;98194.81;101686;1305;62621;-26
2022/12/23 13:58:31;;;;;;;10.90;6.80;;;;;;;5.11;74.48;98194.53;101812;1305;75327;-25
2022/12/23 14:01:20;;;;;;;12.90;7.20;;;;;;;4.95;75.10;98195.89;101671;1300;75841;-25
2022/12/23 14:03:49;;;;;;;8.40;5.50;;;;;;;4.87;75.65;98196.45;101830;1296;75172;-24
2022/12/23 14:06:21;;;;;;;7.90;5.00;;;;;;;5.45;75.44;98197.42;101898;1305;61624;-26
2022/12/23 14:08:48;;;;;;;11.50;6.90;;;;;;;5.87;74.02;98195.55;101824;1303;62765;-25
2022/12/23 14:11:19;;;;;;;15.60;10.20;;;;;;;5.76;73.57;98197.86;101784;1307;76544;-27
2022/12/23 14:13:49;;;;;;;13.60;8.40;;;;;;;5.53;73.96;98199.09;101987;1286;76366;-25
2022/12/23 14:16:19;;;;;;;10.30;7.20;;;;;;;5.35;74.28;98205.86;102215;1299;75273;-25
2022/12/23 14:19:17;;;;;;;12.00;7.80;;;;;;;5.17;74.71;98207.15;102247;1299;62789;-26
2022/12/23 14:21:57;;;;;;;12.80;7.20;;;;;;;4.95;75.23;98216.33;102311;1298;62282;-25
2022/12/23 14:25:01;;;;;;;9.20;6.50;;;;;;;4.74;76.34;98217.77;101936;1299;76559;-25
2022/12/23 14:27:45;;;;;;;10.90;7.20;;;;;;;5.43;75.71;98217.69;102315;1298;75821;-25
2022/12/23 14:30:34;;;;;;;13.70;9.20;;;;;;;5.90;73.86;98220.13;102281;1291;74189;-25
2022/12/23 14:33:05;;;;;;;13.40;8.90;;;;;;;5.80;73.36;98214.27;102331;1299;62905;-25
2022/12/23 14:35:59;;;;;;;16.10;12.00;;;;;;;5.60;73.74;98220.77;102315;1299;62844;-25
2022/12/23 14:38:28;;;;;;;14.50;9.80;;;;;;;5.24;74.78;98225.64;101817;1303;75377;-25
2022/12/23 14:41:35;;;;;;;13.10;9.60;;;;;;;4.95;75.89;98228.73;101888;1306;75837;-25
2022/12/23 14:44:03;;;;;;;14.50;9.90;;;;;;;4.72;76.72;98225.17;101668;1306;73957;-23
2022/12/23 14:46:33;;;;;;;9.20;6.50;;;;;;;4.58;77.46;98225.44;101829;1312;62555;-23
2022/12/23 14:49:00;;;;;;;10.60;7.10;;;;;;;5.03;76.86;98225.40;101836;1304;61671;-24
2022/12/23 14:51:51;;;;;;;10.80;6.70;;;;;;;5.51;74.71;98226.45;101861;1304;76409;-24
2022/12/23 14:54:36;;;;;;;11.60;6.90;;;;;;;5.48;74.20;98221.16;101866;1305;76657;-24
2022/12/23 14:57:05;;;;;;;10.50;6.90;;;;;;;5.21;74.81;98224.60;101685;1300;74987;-24
2022/12/23 14:59:52;;;;;;;12.10;6.50;;;;;;;4.88;76.03;98224.20;101838;1304;61174;-24
2022/12/23 15:02:35;;;;;;;13.80;9.30;;;;;;;4.64;77.48;98222.77;101859;1304;61579;-24
2022/12/23 15:05:03;;;;;;;17.70;11.60;;;;;;;4.41;78.30;98231.27;101838;1307;76358;-24
2022/12/23 15:07:36;;;;;;;19.60;12.00;;;;;;;4.34;79.78;98232.80;101887;1303;76675;-24
2022/12/23 15:10:05;;;;;;;15.30;8.70;;;;;;;4.98;77.87;98235.02;101847;1305;73493;-25
2022/12/23 15:12:40;;;;;;;13.20;8.10;;;;;;;5.27;76.17;98235.94;101863;1304;62698;-23
2022/12/23 15:15:21;;;;;;;11.00;7.30;;;;;;;5.22;75.54;98237.79;101876;1303;62628;-24
2022/12/23 15:17:48;;;;;;;16.70;8.30;;;;;;;4.96;75.94;98237.24;102334;1299;74565;-23
2022/12/23 15:20:19;;;;;;;18.30;10.90;;;;;;;4.69;76.67;98236.23;102248;1299;76547;-24
2022/12/23 15:22:46;;;;;;;11.10;6.60;;;;;;;4.44;77.24;98238.61;102093;1305;75254;-24
2022/12/23 15:25:20;;;;;;;10.40;7.10;;;;;;;4.27;78.29;98241.67;102346;1298;63693;-24
2022/12/23 15:27:47;;;;;;;21.60;12.00;;;;;;;4.66;77.59;98242.42;102284;1298;62801;-24
2022/12/23 15:30:15;;;;;;;22.60;13.00;;;;;;;4.79;76.58;98241.03;102298;1291;76268;-24
2022/12/23 15:32:44;;;;;;;13.00;8.40;;;;;;;4.59;77.05;98241.04;102154;1302;76760;-25
2022/12/23 15:35:22;;;;;;;23.80;13.50;;;;;;;4.33;77.66;98244.65;102220;1301;75215;-26
2022/12/23 15:37:49;;;;;;;19.60;12.40;;;;;;;4.08;78.46;98244.82;102251;1295;61123;-24
2022/12/23 15:40:30;;;;;;;15.70;10.10;;;;;;;3.90;79.49;98247.23;102412;1292;61879;-24
2022/12/23 15:42:57;;;;;;;23.50;12.40;;;;;;;4.26;78.86;98243.80;102172;1301;75344;-26
2022/12/23 15:45:30;;;;;;;22.60;13.00;;;;;;;4.48;77.95;98246.93;102354;1299;76806;-25
2022/12/23 15:47:57;;;;;;;16.40;9.40;;;;;;;4.43;77.62;98245.05;102352;1299;75754;-24
2022/12/23 15:50:24;;;;;;;18.40;11.30;;;;;;;4.24;77.79;98245.80;102381;1291;62599;-25
2022/12/23 15:52:52;;;;;;;21.90;13.00;;;;;;;3.96;78.46;98247.14;102340;1299;61994;-24
2022/12/23 15:55:30;;;;;;;15.50;9.80;;;;;;;3.69;80.08;98249.46;102369;1297;75414;-26
2022/12/23 15:57:57;;;;;;;19.80;11.30;;;;;;;3.86;80.07;98247.67;102170;1294;75674;-25
2022/12/23 16:00:40;;;;;;;29.10;17.60;;;;;;;4.22;79.02;98248.84;102441;1299;74109;-26
2022/12/23 16:03:26;;;;;;;22.50;15.20;;;;;;;4.24;78.81;98248.73;102401;1293;62850;-26
2022/12/23 16:05:54;;;;;;;32.30;16.30;;;;;;;4.08;79.04;98243.95;102421;1299;63330;-25
2022/12/23 16:08:23;;;;;;;23.60;15.70;;;;;;;3.83;79.89;98243.77;102362;1298;75453;-25
2022/12/23 16:11:14;;;;;;;27.20;15.50;;;;;;;3.67;80.33;98244.66;102387;1297;75445;-23
2022/12/23 16:13:57;;;;;;;18.60;13.40;;;;;;;3.76;80.73;98236.44;102266;1300;75156;-24
2022/12/23 16:16:32;;;;;;;;;;;;;;;4.23;79.35;98232.96;102261;1299;61689;-23
2022/12/23 16:18:59;;;;;;;18.10;11.30;;;;;;;4.28;78.76;98238.52;102369;1293;61792;-24
2022/12/23 16:21:36;;;;;;;21.80;11.80;;;;;;;4.02;79.23;98236.96;102316;1291;76388;-24
2022/12/23 16:24:06;;;;;;;23.00;14.10;;;;;;;3.81;80.50;98241.67;102094;1301;77021;-24
2022/12/23 16:26:42;;;;;;;22.60;15.90;;;;;;;3.68;80.66;98242.66;102080;1294;73903;-24
2022/12/23 16:29:10;;;;;;;19.80;11.10;;;;;;;3.57;81.30;98246.45;102144;1291;61653;-24
2022/12/23 16:31:37;;;;;;;18.50;12.30;;;;;;;3.95;80.90;98240.40;102301;1298;61662;-24
2022/12/23 16:34:10;;;;;;;22.90;13.50;;;;;;;4.29;79.44;98235.36;102331;1299;76378;-25
2022/12/23 16:36:38;;;;;;;23.30;12.90;;;;;;;4.18;79.18;98237.31;102389;1299;76791;-24
2022/12/23 16:39:08;;;;;;;22.70;14.70;;;;;;;4.05;79.57;98235.04;102340;1299;75196;-24
2022/12/23 16:41:35;;;;;;;21.70;14.20;;;;;;;3.84;80.12;98233.36;102271;1292;62250;-24
2022/12/23 16:44:02;;;;;;;26.90;15.00;;;;;;;3.57;81.37;98235.13;102371;1293;61114;-24
2022/12/23 16:46:35;;;;;;;15.70;9.90;;;;;;;3.53;81.54;98235.20;102301;1291;76307;-24
2022/12/23 16:49:04;;;;;;;23.30;12.00;;;;;;;4.10;80.32;98229.06;102298;1299;75544;-24
2022/12/23 16:51:32;;;;;;;22.60;15.40;;;;;;;4.37;78.82;98227.46;102219;1299;75071;-24
2022/12/23 16:54:00;;;;;;;21.80;13.30;;;;;;;4.35;78.54;98227.77;102122;1299;61723;-27
2022/12/23 16:56:29;;;;;;;16.70;9.50;;;;;;;4.16;78.65;98227.14;102348;1299;62820;-27
2022/12/23 16:58:56;;;;;;;16.10;9.30;;;;;;;3.89;79.11;98233.39;102080;1301;76520;-26
2022/12/23 17:01:24;;;;;;;14.00;8.30;;;;;;;3.60;80.06;98233.75;102353;1296;76789;-28
2022/12/23 17:03:51;;;;;;;16.10;9.50;;;;;;;3.75;80.54;98237.08;102055;1300;75226;-26
2022/12/23 17:06:19;;;;;;;15.20;8.80;;;;;;;4.17;78.94;98232.36;102314;1297;61949;-29
2022/12/23 17:08:46;;;;;;;16.80;10.70;;;;;;;4.24;78.36;98227.59;102362;1299;62674;-25
2022/12/23 17:11:18;;;;;;;18.90;9.80;;;;;;;4.00;78.60;98221.11;102387;1298;76097;-25